Time,TemperatureF,DewpointF,PressureIn,WindDirection,WindDirectionDegrees,WindSpeedMPH,WindSpeedGustMPH,Humidity,HourlyPrecipIn,Conditions,Clouds,dailyrainin,SoftwareType,DateUTC
2013-01-31 00:00:00,70.8,65.4,29.87,West,261,3.0,3.0,83,0.00,,,0.00,Wunderground v.1.15,2013-01-31 05:00:00,
2013-01-31 00:05:00,70.8,65.4,29.90,West,274,4.0,6.0,83,0.00,,,0.00,Wunderground v.1.15,2013-01-31 05:05:00,
2013-01-31 00:10:00,70.9,65.8,29.90,WNW,284,3.0,7.0,84,0.00,,,0.00,Wunderground v.1.15,2013-01-31 05:10:00,
2013-01-31 00:15:00,70.6,65.5,29.91,WSW,238,4.0,7.0,84,0.00,,,0.00,Wunderground v.1.15,2013-01-31 05:15:00,
2013-01-31 00:20:00,69.4,63.3,29.93,WSW,252,5.0,5.0,81,0.00,,,0.00,Wunderground v.1.15,2013-01-31 05:20:00,
2013-01-31 00:25:00,67.2,61.5,29.93,WNW,301,5.0,5.0,82,0.00,,,0.00,Wunderground v.1.15,2013-01-31 05:25:00,
2013-01-31 00:35:00,64.1,60.2,29.95,West,281,4.0,6.0,87,0.00,,,0.00,Wunderground v.1.15,2013-01-31 05:35:00,
2013-01-31 00:45:00,62.3,58.1,29.96,NW,317,3.0,4.0,86,0.00,,,0.00,Wunderground v.1.15,2013-01-31 05:45:00,
2013-01-31 00:55:00,61.3,56.4,29.96,West,277,4.0,4.0,84,0.00,,,0.00,Wunderground v.1.15,2013-01-31 05:55:00,
2013-01-31 01:05:00,59.3,55.1,29.97,West,277,4.0,4.0,86,0.00,,,0.00,Wunderground v.1.15,2013-01-31 06:05:00,
2013-01-31 01:15:00,57.6,54.7,29.97,West,260,3.0,4.0,90,0.00,,,0.01,Wunderground v.1.15,2013-01-31 06:15:00,
2013-01-31 01:20:00,57.1,54.5,29.97,WSW,244,2.0,2.0,91,0.00,,,0.01,Wunderground v.1.15,2013-01-31 06:20:00,
2013-01-31 01:30:00,56.3,54.0,29.97,West,273,1.0,1.0,92,0.00,,,0.01,Wunderground v.1.15,2013-01-31 06:30:00,
2013-01-31 01:35:00,56.2,54.2,29.97,West,281,1.0,1.0,93,0.00,,,0.02,Wunderground v.1.15,2013-01-31 06:35:00,
2013-01-31 01:45:00,55.1,52.8,29.98,NNW,331,1.0,3.0,92,0.06,,,0.03,Wunderground v.1.15,2013-01-31 06:45:00,
2013-01-31 01:50:00,54.5,52.2,29.98,West,265,1.0,1.0,92,0.06,,,0.03,Wunderground v.1.15,2013-01-31 06:50:00,
2013-01-31 02:00:00,54.0,52.3,29.97,NNW,332,0.0,0.0,94,0.04,,,0.04,Wunderground v.1.15,2013-01-31 07:00:00,
2013-01-31 02:10:00,53.9,52.2,29.96,NW,321,0.0,0.0,94,0.08,,,0.05,Wunderground v.1.15,2013-01-31 07:10:00,
2013-01-31 02:15:00,53.8,52.4,29.97,NW,321,0.0,0.0,95,0.05,,,0.05,Wunderground v.1.15,2013-01-31 07:15:00,
2013-01-31 02:25:00,53.8,52.4,29.97,NW,320,0.0,0.0,95,0.00,,,0.05,Wunderground v.1.15,2013-01-31 07:25:00,
2013-01-31 02:30:00,53.8,52.4,29.98,NW,320,0.0,0.0,95,0.00,,,0.05,Wunderground v.1.15,2013-01-31 07:30:00,
2013-01-31 02:40:00,53.9,52.5,29.98,NW,320,0.0,0.0,95,0.00,,,0.05,Wunderground v.1.15,2013-01-31 07:40:00,
2013-01-31 02:45:00,53.9,52.5,29.97,NW,320,0.0,0.0,95,0.00,,,0.05,Wunderground v.1.15,2013-01-31 07:45:00,
2013-01-31 02:55:00,53.9,52.8,29.98,NW,316,0.0,0.0,96,0.00,,,0.05,Wunderground v.1.15,2013-01-31 07:55:00,
2013-01-31 03:00:00,53.9,52.8,29.98,NW,312,0.0,0.0,96,0.00,,,0.05,Wunderground v.1.15,2013-01-31 08:00:00,
2013-01-31 03:10:00,54.0,52.9,29.98,NW,311,0.0,0.0,96,0.00,,,0.05,Wunderground v.1.15,2013-01-31 08:10:00,
2013-01-31 03:15:00,54.0,52.9,29.98,NW,311,0.0,0.0,96,0.00,,,0.05,Wunderground v.1.15,2013-01-31 08:15:00,
2013-01-31 03:20:00,54.1,53.0,29.98,NW,311,0.0,0.0,96,0.00,,,0.05,Wunderground v.1.15,2013-01-31 08:20:00,
2013-01-31 03:30:00,54.1,53.0,29.98,NW,311,0.0,0.0,96,0.00,,,0.05,Wunderground v.1.15,2013-01-31 08:30:00,
2013-01-31 03:40:00,54.2,52.8,29.98,NW,311,0.0,0.0,95,0.00,,,0.05,Wunderground v.1.15,2013-01-31 08:40:00,
2013-01-31 03:45:00,54.3,52.9,29.98,NW,311,0.0,0.0,95,0.00,,,0.05,Wunderground v.1.15,2013-01-31 08:45:00,
2013-01-31 03:55:00,54.3,52.9,29.99,NW,311,0.0,0.0,95,0.00,,,0.05,Wunderground v.1.15,2013-01-31 08:55:00,
2013-01-31 04:00:00,54.4,53.0,29.99,WSW,247,0.0,0.0,95,0.00,,,0.05,Wunderground v.1.15,2013-01-31 09:00:00,
2013-01-31 04:10:00,54.4,52.7,29.99,WSW,249,0.0,0.0,94,0.00,,,0.05,Wunderground v.1.15,2013-01-31 09:10:00,
2013-01-31 04:15:00,54.5,52.8,29.99,WSW,249,0.0,0.0,94,0.00,,,0.05,Wunderground v.1.15,2013-01-31 09:15:00,
2013-01-31 04:25:00,54.6,52.9,29.99,WSW,249,0.0,0.0,94,0.00,,,0.05,Wunderground v.1.15,2013-01-31 09:25:00,
2013-01-31 04:30:00,54.6,52.6,30.00,WSW,253,0.0,1.0,93,0.00,,,0.05,Wunderground v.1.15,2013-01-31 09:30:00,
2013-01-31 04:40:00,54.7,52.7,29.99,WSW,253,0.0,0.0,93,0.00,,,0.05,Wunderground v.1.15,2013-01-31 09:40:00,
2013-01-31 04:50:00,54.7,52.4,29.99,WSW,253,0.0,0.0,92,0.00,,,0.05,Wunderground v.1.15,2013-01-31 09:50:00,
2013-01-31 04:55:00,54.7,52.4,29.99,WSW,253,0.0,0.0,92,0.00,,,0.05,Wunderground v.1.15,2013-01-31 09:55:00,
2013-01-31 05:00:00,54.7,52.4,29.99,WSW,253,0.0,0.0,92,0.00,,,0.05,Wunderground v.1.15,2013-01-31 10:00:00,
2013-01-31 05:05:00,54.8,52.5,30.00,WSW,253,0.0,0.0,92,0.00,,,0.05,Wunderground v.1.15,2013-01-31 10:05:00,
2013-01-31 05:15:00,54.7,52.1,30.00,WSW,253,0.0,0.0,91,0.00,,,0.05,Wunderground v.1.15,2013-01-31 10:15:00,
2013-01-31 05:20:00,54.7,52.1,30.00,WSW,253,0.0,0.0,91,0.00,,,0.05,Wunderground v.1.15,2013-01-31 10:20:00,
2013-01-31 05:30:00,54.5,51.9,30.00,WSW,253,0.0,0.0,91,0.00,,,0.05,Wunderground v.1.15,2013-01-31 10:30:00,
2013-01-31 05:35:00,54.4,51.5,30.01,WSW,253,0.0,0.0,90,0.00,,,0.05,Wunderground v.1.15,2013-01-31 10:35:00,
2013-01-31 05:45:00,54.0,51.1,30.01,WSW,253,0.0,0.0,90,0.00,,,0.05,Wunderground v.1.15,2013-01-31 10:45:00,
2013-01-31 05:50:00,53.8,50.9,30.02,WSW,253,0.0,0.0,90,0.00,,,0.05,Wunderground v.1.15,2013-01-31 10:50:00,
2013-01-31 06:00:00,53.5,50.6,30.02,WSW,253,0.0,0.0,90,0.00,,,0.05,Wunderground v.1.15,2013-01-31 11:00:00,
2013-01-31 06:10:00,53.2,50.0,30.02,NW,311,0.0,0.0,89,0.00,,,0.05,Wunderground v.1.15,2013-01-31 11:10:00,
2013-01-31 06:15:00,53.1,49.9,30.03,NW,311,0.0,0.0,89,0.00,,,0.05,Wunderground v.1.15,2013-01-31 11:15:00,
2013-01-31 06:20:00,53.0,49.8,30.03,NW,311,0.0,0.0,89,0.00,,,0.05,Wunderground v.1.15,2013-01-31 11:20:00,
2013-01-31 06:30:00,52.8,49.3,30.05,NW,311,0.0,0.0,88,0.00,,,0.05,Wunderground v.1.15,2013-01-31 11:30:00,
2013-01-31 06:40:00,52.7,49.2,30.06,NW,310,0.0,0.0,88,0.00,,,0.05,Wunderground v.1.15,2013-01-31 11:40:00,
2013-01-31 06:45:00,52.6,48.8,30.06,WNW,287,0.0,1.0,87,0.00,,,0.05,Wunderground v.1.15,2013-01-31 11:45:00,
2013-01-31 06:55:00,52.4,47.4,30.06,NW,321,1.0,1.0,83,0.00,,,0.05,Wunderground v.1.15,2013-01-31 11:55:00,
2013-01-31 07:00:00,52.3,47.3,30.06,WNW,292,0.0,0.0,83,0.00,,,0.05,Wunderground v.1.15,2013-01-31 12:00:00,
2013-01-31 07:10:00,51.9,46.9,30.07,WNW,283,0.0,0.0,83,0.00,,,0.05,Wunderground v.1.15,2013-01-31 12:10:00,
2013-01-31 07:15:00,51.6,46.9,30.08,West,269,0.0,0.0,84,0.00,,,0.05,Wunderground v.1.15,2013-01-31 12:15:00,
2013-01-31 07:20:00,51.4,46.7,30.08,West,265,0.0,0.0,84,0.00,,,0.05,Wunderground v.1.15,2013-01-31 12:20:00,
2013-01-31 07:30:00,51.0,46.6,30.08,West,263,0.0,0.0,85,0.00,,,0.05,Wunderground v.1.15,2013-01-31 12:30:00,
2013-01-31 07:35:00,50.9,46.2,30.08,WNW,283,0.0,2.0,84,0.00,,,0.05,Wunderground v.1.15,2013-01-31 12:35:00,
2013-01-31 07:45:00,50.9,45.3,30.08,NW,315,0.0,0.0,81,0.00,,,0.05,Wunderground v.1.15,2013-01-31 12:45:00,
2013-01-31 07:50:00,50.9,45.6,30.09,NW,315,0.0,0.0,82,0.00,,,0.05,Wunderground v.1.15,2013-01-31 12:50:00,
2013-01-31 08:00:00,51.0,45.4,30.09,NW,312,0.0,2.0,81,0.00,,,0.05,Wunderground v.1.15,2013-01-31 13:00:00,
2013-01-31 08:10:00,51.2,45.6,30.10,NW,317,1.0,3.0,81,0.00,,,0.05,Wunderground v.1.15,2013-01-31 13:10:00,
2013-01-31 08:15:00,51.2,45.6,30.10,NNW,328,1.0,3.0,81,0.00,,,0.05,Wunderground v.1.15,2013-01-31 13:15:00,
2013-01-31 08:25:00,51.5,45.5,30.10,NNW,329,1.0,1.0,80,0.00,,,0.05,Wunderground v.1.15,2013-01-31 13:25:00,
2013-01-31 08:30:00,51.5,45.2,30.11,NW,323,1.0,3.0,79,0.00,,,0.05,Wunderground v.1.15,2013-01-31 13:30:00,
2013-01-31 08:40:00,52.0,45.7,30.11,NNW,342,1.0,1.0,79,0.00,,,0.05,Wunderground v.1.15,2013-01-31 13:40:00,
2013-01-31 08:45:00,52.3,46.0,30.12,NE,53,1.0,1.0,79,0.00,,,0.05,Wunderground v.1.15,2013-01-31 13:45:00,
2013-01-31 08:55:00,52.7,45.7,30.12,NW,325,1.0,4.0,77,0.00,,,0.05,Wunderground v.1.15,2013-01-31 13:55:00,
2013-01-31 09:00:00,52.8,45.8,30.13,NW,315,2.0,2.0,77,0.00,,,0.05,Wunderground v.1.15,2013-01-31 14:00:00,
2013-01-31 09:10:00,53.0,45.3,30.13,NW,319,2.0,2.0,75,0.00,,,0.05,Wunderground v.1.15,2013-01-31 14:10:00,
2013-01-31 09:15:00,53.3,45.6,30.13,NNE,16,2.0,2.0,75,0.00,,,0.05,Wunderground v.1.15,2013-01-31 14:15:00,
2013-01-31 09:25:00,53.6,43.3,30.13,North,351,2.0,3.0,68,0.00,,,0.05,Wunderground v.1.15,2013-01-31 14:25:00,
2013-01-31 09:35:00,53.5,42.0,30.14,North,360,2.0,2.0,65,0.00,,,0.05,Wunderground v.1.15,2013-01-31 14:35:00,
2013-01-31 09:45:00,53.5,39.9,30.15,NNW,348,2.0,3.0,60,0.00,,,0.05,Wunderground v.1.15,2013-01-31 14:45:00,
2013-01-31 09:50:00,53.4,38.5,30.15,NW,321,3.0,6.0,57,0.00,,,0.05,Wunderground v.1.15,2013-01-31 14:50:00,
2013-01-31 10:00:00,53.5,38.6,30.15,North,355,3.0,3.0,57,0.00,,,0.05,Wunderground v.1.15,2013-01-31 15:00:00,
2013-01-31 10:05:00,53.7,39.3,30.16,WNW,289,2.0,3.0,58,0.00,,,0.05,Wunderground v.1.15,2013-01-31 15:05:00,
2013-01-31 10:15:00,54.4,39.9,30.16,NW,319,1.0,2.0,58,0.00,,,0.05,Wunderground v.1.15,2013-01-31 15:15:00,
2013-01-31 10:20:00,54.5,39.6,30.16,North,360,2.0,2.0,57,0.00,,,0.05,Wunderground v.1.15,2013-01-31 15:20:00,
2013-01-31 10:30:00,54.4,38.1,30.16,NW,323,2.0,3.0,54,0.00,,,0.05,Wunderground v.1.15,2013-01-31 15:30:00,
2013-01-31 10:35:00,54.2,38.4,30.16,NW,316,2.0,3.0,55,0.00,,,0.05,Wunderground v.1.15,2013-01-31 15:35:00,
2013-01-31 10:45:00,54.5,39.6,30.16,NW,322,2.0,2.0,57,0.00,,,0.05,Wunderground v.1.15,2013-01-31 15:45:00,
2013-01-31 10:55:00,55.0,39.1,30.16,NW,322,2.0,2.0,55,0.00,,,0.05,Wunderground v.1.15,2013-01-31 15:55:00,
2013-01-31 11:00:00,55.1,39.2,30.17,West,281,2.0,2.0,55,0.00,,,0.05,Wunderground v.1.15,2013-01-31 16:00:00,
2013-01-31 11:10:00,55.1,39.2,30.17,NW,320,2.0,2.0,55,0.00,,,0.05,Wunderground v.1.15,2013-01-31 16:10:00,
2013-01-31 11:15:00,55.2,38.4,30.16,NW,326,2.0,4.0,53,0.00,,,0.05,Wunderground v.1.15,2013-01-31 16:15:00,
2013-01-31 11:20:00,55.1,37.8,30.17,WNW,290,2.0,3.0,52,0.00,,,0.05,Wunderground v.1.15,2013-01-31 16:20:00,
2013-01-31 11:30:00,55.5,36.1,30.16,West,269,2.0,2.0,48,0.00,,,0.05,Wunderground v.1.15,2013-01-31 16:30:00,
2013-01-31 11:40:00,56.0,37.6,30.16,NW,317,1.0,1.0,50,0.00,,,0.05,Wunderground v.1.15,2013-01-31 16:40:00,
2013-01-31 11:45:00,56.2,39.3,30.16,NNW,335,2.0,2.0,53,0.00,,,0.05,Wunderground v.1.15,2013-01-31 16:45:00,
2013-01-31 11:55:00,56.8,40.8,30.16,NNW,331,1.0,1.0,55,0.00,,,0.05,Wunderground v.1.15,2013-01-31 16:55:00,
2013-01-31 12:05:00,57.1,40.1,30.15,NNW,339,1.0,2.0,53,0.00,,,0.05,Wunderground v.1.15,2013-01-31 17:05:00,
2013-01-31 12:10:00,57.3,39.8,30.15,NW,308,2.0,2.0,52,0.00,,,0.05,Wunderground v.1.15,2013-01-31 17:10:00,
2013-01-31 12:20:00,57.1,34.8,30.15,West,276,3.0,4.0,43,0.00,,,0.05,Wunderground v.1.15,2013-01-31 17:20:00,
2013-01-31 12:30:00,57.5,34.6,30.15,NNW,339,2.0,2.0,42,0.00,,,0.05,Wunderground v.1.15,2013-01-31 17:30:00,
2013-01-31 12:35:00,57.4,35.1,30.15,NNW,327,2.0,2.0,43,0.00,,,0.05,Wunderground v.1.15,2013-01-31 17:35:00,
2013-01-31 12:40:00,57.8,34.8,30.15,North,360,2.0,2.0,42,0.00,,,0.05,Wunderground v.1.15,2013-01-31 17:40:00,
2013-01-31 12:50:00,58.3,35.3,30.14,NNE,13,2.0,2.0,42,0.00,,,0.05,Wunderground v.1.15,2013-01-31 17:50:00,
2013-01-31 13:00:00,58.1,33.9,30.14,WSW,245,2.0,2.0,40,0.00,,,0.05,Wunderground v.1.15,2013-01-31 18:00:00,
2013-01-31 13:05:00,58.6,34.3,30.14,NNW,333,2.0,2.0,40,0.00,,,0.05,Wunderground v.1.15,2013-01-31 18:05:00,
2013-01-31 13:15:00,59.2,33.6,30.14,WSW,254,2.0,2.0,38,0.00,,,0.05,Wunderground v.1.15,2013-01-31 18:15:00,
2013-01-31 13:25:00,59.8,34.8,30.14,WNW,282,1.0,2.0,39,0.00,,,0.05,Wunderground v.1.15,2013-01-31 18:25:00,
2013-01-31 13:30:00,60.0,32.9,30.14,WSW,240,2.0,4.0,36,0.00,,,0.05,Wunderground v.1.15,2013-01-31 18:30:00,
2013-01-31 13:40:00,60.4,35.9,30.13,NNW,329,2.0,2.0,40,0.00,,,0.05,Wunderground v.1.15,2013-01-31 18:40:00,
2013-01-31 13:45:00,60.3,33.9,30.13,NW,318,2.0,2.0,37,0.00,,,0.05,Wunderground v.1.15,2013-01-31 18:45:00,
2013-01-31 13:55:00,60.2,33.8,30.13,NW,310,2.0,3.0,37,0.00,,,0.05,Wunderground v.1.15,2013-01-31 18:55:00,
2013-01-31 14:00:00,60.3,33.2,30.13,West,264,1.0,2.0,36,0.00,,,0.05,Wunderground v.1.15,2013-01-31 19:00:00,
2013-01-31 14:10:00,61.3,32.7,30.13,WSW,258,2.0,6.0,34,0.00,,,0.05,Wunderground v.1.15,2013-01-31 19:10:00,
2013-01-31 14:20:00,61.6,31.4,30.13,NW,311,2.0,2.0,32,0.00,,,0.05,Wunderground v.1.15,2013-01-31 19:20:00,
2013-01-31 14:30:00,61.1,29.4,30.13,NW,311,2.0,3.0,30,0.00,,,0.05,Wunderground v.1.15,2013-01-31 19:30:00,
2013-01-31 14:35:00,61.2,29.5,30.13,NW,319,1.0,4.0,30,0.00,,,0.05,Wunderground v.1.15,2013-01-31 19:35:00,
2013-01-31 14:45:00,61.8,30.8,30.13,NNW,333,1.0,2.0,31,0.00,,,0.05,Wunderground v.1.15,2013-01-31 19:45:00,
2013-01-31 14:50:00,62.0,30.2,30.13,WNW,292,2.0,2.0,30,0.00,,,0.05,Wunderground v.1.15,2013-01-31 19:50:00,
2013-01-31 15:00:00,61.6,29.8,30.14,NNW,329,1.0,1.0,30,0.00,,,0.05,Wunderground v.1.15,2013-01-31 20:00:00,
2013-01-31 15:05:00,61.4,28.0,30.13,North,355,2.0,4.0,28,0.00,,,0.05,Wunderground v.1.15,2013-01-31 20:05:00,
2013-01-31 15:15:00,61.5,27.2,30.14,West,271,2.0,2.0,27,0.00,,,0.05,Wunderground v.1.15,2013-01-31 20:15:00,
2013-01-31 15:20:00,62.0,26.7,30.14,NNW,331,3.0,3.0,26,0.00,,,0.05,Wunderground v.1.15,2013-01-31 20:20:00,
2013-01-31 15:30:00,62.2,26.9,30.14,West,261,2.0,2.0,26,0.00,,,0.05,Wunderground v.1.15,2013-01-31 20:30:00,
2013-01-31 15:35:00,62.4,26.1,30.14,West,261,3.0,5.0,25,0.00,,,0.05,Wunderground v.1.15,2013-01-31 20:35:00,
2013-01-31 15:45:00,62.3,26.9,30.13,NNE,15,1.0,3.0,26,0.00,,,0.05,Wunderground v.1.15,2013-01-31 20:45:00,
2013-01-31 15:55:00,61.7,26.4,30.14,WNW,290,1.0,1.0,26,0.00,,,0.05,Wunderground v.1.15,2013-01-31 20:55:00,
2013-01-31 16:05:00,61.3,27.9,30.13,WSW,246,2.0,2.0,28,0.00,,,0.05,Wunderground v.1.15,2013-01-31 21:05:00,
2013-01-31 16:15:00,61.0,29.3,30.14,WNW,296,2.0,2.0,30,0.00,,,0.05,Wunderground v.1.15,2013-01-31 21:15:00,
2013-01-31 16:20:00,61.1,27.7,30.14,WNW,302,2.0,2.0,28,0.00,,,0.05,Wunderground v.1.15,2013-01-31 21:20:00,
2013-01-31 16:25:00,60.9,26.7,30.14,North,350,2.0,2.0,27,0.00,,,0.05,Wunderground v.1.15,2013-01-31 21:25:00,
2013-01-31 16:35:00,60.5,28.1,30.14,WNW,302,2.0,2.0,29,0.00,,,0.05,Wunderground v.1.15,2013-01-31 21:35:00,
2013-01-31 16:45:00,60.3,29.5,30.14,NW,309,1.0,2.0,31,0.00,,,0.05,Wunderground v.1.15,2013-01-31 21:45:00,
2013-01-31 16:50:00,60.3,29.5,30.13,West,281,1.0,1.0,31,0.00,,,0.05,Wunderground v.1.15,2013-01-31 21:50:00,
2013-01-31 17:00:00,60.1,30.1,30.14,WSW,252,1.0,1.0,32,0.00,,,0.05,Wunderground v.1.15,2013-01-31 22:00:00,
2013-01-31 17:05:00,60.1,30.1,30.14,West,273,1.0,1.0,32,0.00,,,0.05,Wunderground v.1.15,2013-01-31 22:05:00,
2013-01-31 17:15:00,59.9,29.2,30.14,SW,234,1.0,1.0,31,0.00,,,0.05,Wunderground v.1.15,2013-01-31 22:15:00,
2013-01-31 17:20:00,59.6,28.9,30.14,NW,316,1.0,1.0,31,0.00,,,0.05,Wunderground v.1.15,2013-01-31 22:20:00,
2013-01-31 17:30:00,59.2,27.7,30.14,WNW,284,1.0,1.0,30,0.00,,,0.05,Wunderground v.1.15,2013-01-31 22:30:00,
2013-01-31 17:35:00,59.0,27.6,30.15,WSW,258,0.0,1.0,30,0.00,,,0.05,Wunderground v.1.15,2013-01-31 22:35:00,
2013-01-31 17:45:00,58.3,28.5,30.15,NW,315,0.0,0.0,32,0.00,,,0.05,Wunderground v.1.15,2013-01-31 22:45:00,
2013-01-31 17:50:00,57.9,28.2,30.15,WNW,294,0.0,0.0,32,0.00,,,0.05,Wunderground v.1.15,2013-01-31 22:50:00,
2013-01-31 17:55:00,57.6,27.9,30.15,WNW,294,0.0,0.0,32,0.00,,,0.05,Wunderground v.1.15,2013-01-31 22:55:00,
2013-01-31 18:05:00,56.9,28.1,30.15,WNW,294,0.0,0.0,33,0.00,,,0.05,Wunderground v.1.15,2013-01-31 23:05:00,
2013-01-31 18:10:00,56.6,29.9,30.15,WNW,294,0.0,0.0,36,0.00,,,0.05,Wunderground v.1.15,2013-01-31 23:10:00,
2013-01-31 18:20:00,55.8,28.5,30.16,WNW,294,0.0,0.0,35,0.00,,,0.05,Wunderground v.1.15,2013-01-31 23:20:00,
2013-01-31 18:25:00,55.4,28.9,30.16,WNW,294,0.0,0.0,36,0.00,,,0.05,Wunderground v.1.15,2013-01-31 23:25:00,
2013-01-31 18:35:00,54.5,31.3,30.16,WNW,294,0.0,0.0,41,0.00,,,0.05,Wunderground v.1.15,2013-01-31 23:35:00,
2013-01-31 18:40:00,54.0,30.8,30.17,WNW,294,0.0,0.0,41,0.00,,,0.05,Wunderground v.1.15,2013-01-31 23:40:00,
2013-01-31 18:45:00,53.5,29.7,30.16,WNW,294,0.0,0.0,40,0.00,,,0.05,Wunderground v.1.15,2013-01-31 23:45:00,
2013-01-31 18:55:00,52.7,31.9,30.17,WNW,294,0.0,0.0,45,0.00,,,0.05,Wunderground v.1.15,2013-01-31 23:55:00,
2013-01-31 19:05:00,52.0,31.8,30.17,WNW,294,0.0,0.0,46,0.00,,,0.05,Wunderground v.1.15,2013-02-01 00:05:00,
2013-01-31 19:10:00,51.6,34.5,30.17,WNW,294,0.0,0.0,52,0.00,,,0.05,Wunderground v.1.15,2013-02-01 00:10:00,
2013-01-31 19:20:00,50.6,32.1,30.18,WNW,294,0.0,0.0,49,0.00,,,0.05,Wunderground v.1.15,2013-02-01 00:20:00,
2013-01-31 19:30:00,49.8,32.4,30.19,WNW,294,0.0,0.0,51,0.00,,,0.05,Wunderground v.1.15,2013-02-01 00:30:00,
2013-01-31 19:35:00,49.5,32.6,30.19,WNW,294,0.0,0.0,52,0.00,,,0.05,Wunderground v.1.15,2013-02-01 00:35:00,
2013-01-31 19:45:00,49.0,30.1,30.20,WNW,294,0.0,0.0,48,0.00,,,0.05,Wunderground v.1.15,2013-02-01 00:45:00,
2013-01-31 19:50:00,49.1,31.2,30.20,WNW,294,0.0,0.0,50,0.00,,,0.05,Wunderground v.1.15,2013-02-01 00:50:00,
2013-01-31 19:55:00,49.2,31.8,30.20,WNW,294,0.0,0.0,51,0.00,,,0.05,Wunderground v.1.15,2013-02-01 00:55:00,
2013-01-31 20:05:00,49.4,33.4,30.21,WNW,294,0.0,0.0,54,0.00,,,0.05,Wunderground v.1.15,2013-02-01 01:05:00,
2013-01-31 20:10:00,49.4,33.9,30.21,WNW,294,0.0,0.0,55,0.00,,,0.05,Wunderground v.1.15,2013-02-01 01:10:00,
2013-01-31 20:20:00,49.1,34.9,30.21,WNW,294,0.0,0.0,58,0.00,,,0.05,Wunderground v.1.15,2013-02-01 01:20:00,
2013-01-31 20:25:00,48.9,35.2,30.21,WNW,294,0.0,0.0,59,0.00,,,0.05,Wunderground v.1.15,2013-02-01 01:25:00,
2013-01-31 20:35:00,48.6,35.7,30.21,WNW,294,0.0,0.0,61,0.00,,,0.05,Wunderground v.1.15,2013-02-01 01:35:00,
2013-01-31 20:45:00,47.9,36.3,30.21,WNW,294,0.0,0.0,64,0.00,,,0.05,Wunderground v.1.15,2013-02-01 01:45:00,
2013-01-31 20:50:00,47.6,36.4,30.22,WNW,294,0.0,0.0,65,0.00,,,0.05,Wunderground v.1.15,2013-02-01 01:50:00,
2013-01-31 21:00:00,47.1,36.7,30.22,WNW,294,0.0,0.0,67,0.00,,,0.05,Wunderground v.1.15,2013-02-01 02:00:00,
2013-01-31 21:05:00,46.8,36.8,30.22,WNW,294,0.0,0.0,68,0.00,,,0.05,Wunderground v.1.15,2013-02-01 02:05:00,
2013-01-31 21:15:00,46.3,36.7,30.23,WNW,294,0.0,0.0,69,0.00,,,0.05,Wunderground v.1.15,2013-02-01 02:15:00,
2013-01-31 21:25:00,46.0,36.8,30.23,WNW,294,0.0,0.0,70,0.00,,,0.05,Wunderground v.1.15,2013-02-01 02:25:00,
2013-01-31 21:30:00,45.8,36.9,30.22,WNW,294,0.0,0.0,71,0.00,,,0.05,Wunderground v.1.15,2013-02-01 02:30:00,
2013-01-31 21:40:00,45.6,37.1,30.23,WNW,294,0.0,0.0,72,0.00,,,0.05,Wunderground v.1.15,2013-02-01 02:40:00,
2013-01-31 21:45:00,45.3,36.8,30.22,WNW,294,0.0,0.0,72,0.00,,,0.05,Wunderground v.1.15,2013-02-01 02:45:00,
2013-01-31 21:55:00,44.8,37.0,30.23,WNW,294,0.0,0.0,74,0.00,,,0.05,Wunderground v.1.15,2013-02-01 02:55:00,
2013-01-31 22:00:00,44.6,37.2,30.23,WNW,294,0.0,0.0,75,0.00,,,0.05,Wunderground v.1.15,2013-02-01 03:00:00,
2013-01-31 22:10:00,44.3,36.9,30.23,WNW,294,0.0,0.0,75,0.00,,,0.05,Wunderground v.1.15,2013-02-01 03:10:00,
2013-01-31 22:20:00,44.2,36.8,30.24,WNW,294,0.0,0.0,75,0.00,,,0.05,Wunderground v.1.15,2013-02-01 03:20:00,
2013-01-31 22:25:00,44.1,36.7,30.24,WNW,294,0.0,0.0,75,0.00,,,0.05,Wunderground v.1.15,2013-02-01 03:25:00,
2013-01-31 22:35:00,43.9,36.5,30.24,WNW,294,0.0,0.0,75,0.00,,,0.05,Wunderground v.1.15,2013-02-01 03:35:00,
2013-01-31 22:45:00,43.8,36.0,30.24,WNW,294,0.0,0.0,74,0.00,,,0.05,Wunderground v.1.15,2013-02-01 03:45:00,
2013-01-31 22:50:00,43.7,35.6,30.24,WNW,294,0.0,0.0,73,0.00,,,0.05,Wunderground v.1.15,2013-02-01 03:50:00,
2013-01-31 23:00:00,43.7,34.9,30.24,WNW,294,0.0,0.0,71,0.00,,,0.05,Wunderground v.1.15,2013-02-01 04:00:00,
2013-01-31 23:05:00,43.8,34.6,30.24,WNW,294,0.0,0.0,70,0.00,,,0.05,Wunderground v.1.15,2013-02-01 04:05:00,
2013-01-31 23:15:00,43.7,35.3,30.24,WNW,294,0.0,0.0,72,0.00,,,0.05,Wunderground v.1.15,2013-02-01 04:15:00,
2013-01-31 23:25:00,43.4,35.7,30.25,WNW,294,0.0,0.0,74,0.00,,,0.05,Wunderground v.1.15,2013-02-01 04:25:00,
2013-01-31 23:30:00,43.2,35.5,30.25,WNW,294,0.0,0.0,74,0.00,,,0.05,Wunderground v.1.15,2013-02-01 04:30:00,
2013-01-31 23:40:00,42.9,35.2,30.25,WNW,294,0.0,0.0,74,0.00,,,0.05,Wunderground v.1.15,2013-02-01 04:40:00,
2013-01-31 23:45:00,42.8,35.1,30.25,WNW,294,0.0,0.0,74,0.00,,,0.05,Wunderground v.1.15,2013-02-01 04:45:00,
2013-01-31 23:50:00,42.6,34.9,30.25,WNW,294,0.0,0.0,74,0.00,,,0.05,Wunderground v.1.15,2013-02-01 04:50:00,